Time;durP1;ratioP1;P1;durP2;ratioP2;P2;SDS_P1;SDS_P2;PMS_P1;PMS_P2;Temp;Humidity;BMP_temperature;BMP_pressure;BME280_temperature;BME280_humidity;BME280_pressure;Samples;Min_cycle;Max_cycle;Signal;HPM_P1;HPM_P2
2023/03/19 00:00:23;;;;;;;11.45;8.38;;;21.50;29.70;;;;;;5088814;28;20048;-58
2023/03/19 00:02:51;;;;;;;11.38;8.55;;;21.50;29.70;;;;;;5097106;28;20131;-58
2023/03/19 00:05:18;;;;;;;12.80;8.82;;;21.50;29.70;;;;;;5097012;28;20080;-59
2023/03/19 00:07:45;;;;;;;13.32;8.70;;;21.50;29.70;;;;;;5097168;28;20102;-58
2023/03/19 00:10:13;;;;;;;10.65;8.48;;;21.50;29.70;;;;;;5096948;28;20054;-59
2023/03/19 00:12:40;;;;;;;12.55;8.63;;;21.50;29.70;;;;;;5097185;28;20078;-58
2023/03/19 00:15:12;;;;;;;13.23;9.23;;;21.50;29.70;;;;;;5097083;28;20062;-61
2023/03/19 00:17:41;;;;;;;12.20;9.30;;;21.50;29.70;;;;;;5097035;28;20445;-60
2023/03/19 00:20:11;;;;;;;13.23;8.75;;;21.50;29.80;;;;;;5095904;28;20048;-61
2023/03/19 00:22:39;;;;;;;11.50;8.07;;;21.50;29.80;;;;;;5096602;28;20086;-61
2023/03/19 00:25:07;;;;;;;12.10;8.32;;;21.50;29.80;;;;;;5095578;28;20054;-61
2023/03/19 00:27:36;;;;;;;10.77;8.02;;;21.50;29.80;;;;;;5096169;28;20105;-61
2023/03/19 00:30:06;;;;;;;13.63;8.32;;;21.50;29.80;;;;;;5096551;28;20070;-61
2023/03/19 00:32:34;;;;;;;9.63;7.53;;;21.50;29.80;;;;;;5096364;28;20123;-61
2023/03/19 00:35:02;;;;;;;10.45;8.30;;;21.40;29.80;;;;;;5096762;28;20082;-61
2023/03/19 00:37:29;;;;;;;10.57;7.93;;;21.40;29.80;;;;;;5096627;28;20123;-61
2023/03/19 00:39:57;;;;;;;11.27;8.43;;;21.40;29.80;;;;;;5096544;28;20131;-61
2023/03/19 00:42:24;;;;;;;9.32;7.40;;;21.40;29.80;;;;;;5096620;28;20050;-61
2023/03/19 00:44:52;;;;;;;11.30;8.38;;;21.40;29.80;;;;;;5096617;28;20123;-61
2023/03/19 00:47:19;;;;;;;9.05;7.60;;;21.40;29.80;;;;;;5095980;28;20040;-61
2023/03/19 00:49:46;;;;;;;11.27;8.13;;;21.40;29.80;;;;;;5096494;28;20131;-61
2023/03/19 00:52:13;;;;;;;9.00;7.40;;;21.40;29.80;;;;;;5096404;28;20070;-61
2023/03/19 00:54:40;;;;;;;12.73;8.65;;;21.40;29.90;;;;;;5096390;28;20427;-61
2023/03/19 00:57:08;;;;;;;11.50;8.02;;;21.40;29.90;;;;;;5083834;28;20176;-61
2023/03/19 00:59:35;;;;;;;8.82;7.38;;;21.40;29.90;;;;;;5075636;28;20059;-61
2023/03/19 01:02:03;;;;;;;12.32;7.88;;;21.40;29.90;;;;;;5075496;28;20489;-58
2023/03/19 01:04:30;;;;;;;11.23;8.13;;;21.40;29.90;;;;;;5075694;28;20135;-58
2023/03/19 01:06:59;;;;;;;10.63;7.50;;;21.40;30.30;;;;;;5075541;28;20041;-58
2023/03/19 01:09:25;;;;;;;10.43;7.93;;;21.40;29.90;;;;;;5075862;28;20461;-59
2023/03/19 01:11:52;;;;;;;10.90;8.30;;;21.40;29.90;;;;;;5075880;28;20472;-58
2023/03/19 01:14:20;;;;;;;9.95;7.45;;;21.40;29.90;;;;;;5075216;28;20064;-58
2023/03/19 01:16:47;;;;;;;10.07;7.47;;;21.40;29.90;;;;;;5075688;28;20399;-58
2023/03/19 01:19:15;;;;;;;10.60;7.50;;;21.40;29.90;;;;;;5074201;28;20055;-58
2023/03/19 01:21:45;;;;;;;9.80;7.35;;;21.40;29.90;;;;;;5075272;28;20530;-59
2023/03/19 01:24:12;;;;;;;9.45;6.97;;;21.40;29.90;;;;;;5075585;28;20044;-58
2023/03/19 01:26:40;;;;;;;9.88;7.28;;;21.40;29.90;;;;;;5075107;28;20083;-58
2023/03/19 01:29:08;;;;;;;8.63;7.07;;;21.40;29.90;;;;;;5075562;28;20044;-58
2023/03/19 01:31:36;;;;;;;11.48;7.45;;;21.40;29.90;;;;;;5075123;28;20128;-58
2023/03/19 01:34:03;;;;;;;10.98;7.50;;;21.40;29.90;;;;;;5075350;28;20400;-58
2023/03/19 01:36:31;;;;;;;10.13;7.28;;;21.40;29.90;;;;;;5075291;28;20475;-58
2023/03/19 01:38:58;;;;;;;9.27;7.22;;;21.40;29.90;;;;;;5074985;28;20500;-58
2023/03/19 01:41:26;;;;;;;8.93;7.07;;;21.40;30.00;;;;;;5074881;28;20052;-59
2023/03/19 01:43:53;;;;;;;9.32;7.05;;;21.40;30.00;;;;;;5075309;28;20044;-58
2023/03/19 01:46:32;;;;;;;9.32;6.68;;;21.40;30.00;;;;;;5073804;28;20053;-58
2023/03/19 01:49:05;;;;;;;10.35;7.88;;;21.30;29.90;;;;;;5075056;28;20385;-58
2023/03/19 01:51:38;;;;;;;8.90;6.90;;;21.30;29.90;;;;;;5074711;28;20048;-58
2023/03/19 01:54:11;;;;;;;9.07;6.85;;;21.40;30.00;;;;;;5075089;28;20123;-58
2023/03/19 01:56:39;;;;;;;10.68;7.30;;;21.30;29.90;;;;;;5074912;28;20139;-58
2023/03/19 01:59:15;;;;;;;9.38;6.97;;;21.30;29.90;;;;;;5074622;28;20049;-58
2023/03/19 02:01:53;;;;;;;8.60;6.63;;;21.30;29.90;;;;;;5074550;28;20420;-59
2023/03/19 02:04:22;;;;;;;7.72;6.13;;;21.30;29.90;;;;;;5073924;28;20052;-58
2023/03/19 02:06:49;;;;;;;10.23;7.55;;;21.30;29.90;;;;;;5074773;28;20052;-58
2023/03/19 02:09:17;;;;;;;9.82;6.28;;;21.30;29.90;;;;;;5074465;28;20091;-58
2023/03/19 02:11:45;;;;;;;10.38;7.30;;;21.30;29.90;;;;;;5074610;28;20052;-59
2023/03/19 02:14:12;;;;;;;8.60;6.40;;;21.30;29.90;;;;;;5074649;28;20051;-59
2023/03/19 02:16:39;;;;;;;9.18;6.55;;;21.30;30.00;;;;;;5082698;28;20058;-59
2023/03/19 02:19:12;;;;;;;7.55;6.13;;;21.30;30.00;;;;;;5094670;28;20040;-59
2023/03/19 02:21:39;;;;;;;8.70;6.57;;;21.30;30.00;;;;;;5093407;28;20438;-60
2023/03/19 02:24:28;;;;;;;7.28;6.05;;;21.30;30.00;;;;;;5094280;28;20132;-59
2023/03/19 02:26:57;;;;;;;7.30;6.05;;;21.30;30.00;;;;;;5094588;28;20056;-59
2023/03/19 02:29:25;;;;;;;7.70;5.70;;;21.30;30.00;;;;;;5094382;28;20054;-59
2023/03/19 02:31:52;;;;;;;8.90;6.03;;;21.30;30.00;;;;;;5094407;28;20048;-59
2023/03/19 02:34:40;;;;;;;7.85;6.18;;;21.30;30.00;;;;;;5093929;28;20048;-59
2023/03/19 02:37:21;;;;;;;8.00;6.18;;;21.30;30.00;;;;;;5093393;28;20044;-59
2023/03/19 02:40:03;;;;;;;10.63;6.70;;;21.30;30.00;;;;;;5094307;28;20408;-59
2023/03/19 02:42:30;;;;;;;8.32;5.93;;;21.30;30.00;;;;;;5094275;28;20083;-59
2023/03/19 02:44:57;;;;;;;7.65;6.07;;;21.30;30.00;;;;;;5094399;28;20122;-59
2023/03/19 02:47:26;;;;;;;8.70;6.35;;;21.30;30.00;;;;;;5093674;28;20466;-59
2023/03/19 02:49:53;;;;;;;7.32;6.18;;;21.30;30.00;;;;;;5079585;28;20492;-60
2023/03/19 02:52:21;;;;;;;8.18;5.63;;;21.30;30.00;;;;;;5093831;28;20498;-59
2023/03/19 02:54:48;;;;;;;8.07;5.85;;;21.30;30.00;;;;;;5093734;28;20572;-60
2023/03/19 02:57:15;;;;;;;7.88;6.10;;;21.30;30.00;;;;;;5094054;28;20040;-59
2023/03/19 02:59:42;;;;;;;8.45;5.47;;;21.30;30.00;;;;;;5093602;28;20051;-60
2023/03/19 03:02:10;;;;;;;6.80;5.13;;;21.20;30.00;;;;;;5093906;28;20126;-59
2023/03/19 03:04:37;;;;;;;8.43;5.95;;;21.20;30.00;;;;;;5093756;28;20552;-59
2023/03/19 03:07:05;;;;;;;8.35;5.60;;;21.20;30.00;;;;;;5093888;28;20054;-59
2023/03/19 03:09:32;;;;;;;6.50;5.43;;;21.20;30.00;;;;;;5093603;28;20080;-59
2023/03/19 03:11:59;;;;;;;6.78;5.03;;;21.30;30.00;;;;;;5093906;28;20131;-60
2023/03/19 03:14:26;;;;;;;7.07;5.47;;;21.20;30.00;;;;;;5093822;28;20407;-59
2023/03/19 03:16:53;;;;;;;7.47;5.43;;;21.20;30.00;;;;;;5092955;28;20044;-59
2023/03/19 03:19:22;;;;;;;7.38;6.03;;;21.20;30.00;;;;;;5093791;28;20380;-59
2023/03/19 03:21:49;;;;;;;6.35;5.25;;;21.20;30.00;;;;;;5093334;28;20090;-59
2023/03/19 03:24:16;;;;;;;6.95;4.85;;;21.30;30.00;;;;;;5093231;28;20126;-59
2023/03/19 03:26:43;;;;;;;7.18;5.65;;;21.30;30.00;;;;;;5093400;28;20135;-60
2023/03/19 03:29:10;;;;;;;7.00;5.18;;;21.20;30.00;;;;;;5093662;28;20082;-59
2023/03/19 03:31:37;;;;;;;6.47;4.70;;;21.30;30.00;;;;;;5092036;28;20583;-59
2023/03/19 03:34:05;;;;;;;8.15;5.55;;;21.20;30.00;;;;;;5093326;28;20059;-60
2023/03/19 03:36:32;;;;;;;6.63;5.00;;;21.20;30.00;;;;;;5093195;28;20471;-59
2023/03/19 03:38:59;;;;;;;6.25;4.75;;;21.20;30.00;;;;;;5093243;28;20127;-59
2023/03/19 03:41:26;;;;;;;6.75;5.30;;;21.20;30.00;;;;;;5093112;28;20050;-59
2023/03/19 03:43:54;;;;;;;6.10;4.80;;;21.20;30.60;;;;;;5092930;28;20131;-60
2023/03/19 03:46:22;;;;;;;7.20;5.18;;;21.20;30.00;;;;;;5093324;28;20052;-59
2023/03/19 03:48:50;;;;;;;6.32;4.82;;;21.20;30.00;;;;;;5093157;28;20494;-60
2023/03/19 03:51:18;;;;;;;5.25;4.57;;;21.20;30.00;;;;;;5093244;28;20052;-59
2023/03/19 03:53:45;;;;;;;6.80;4.63;;;21.20;30.10;;;;;;5093222;28;20040;-59
2023/03/19 03:56:12;;;;;;;6.93;4.38;;;21.20;30.10;;;;;;5092957;28;20087;-59
2023/03/19 03:58:40;;;;;;;7.05;4.53;;;21.20;30.10;;;;;;5093045;28;20127;-59
2023/03/19 04:01:13;;;;;;;5.75;4.93;;;21.20;30.10;;;;;;5093282;28;20048;-60
2023/03/19 04:03:40;;;;;;;6.53;5.10;;;21.20;30.10;;;;;;5093334;28;20051;-59
2023/03/19 04:06:12;;;;;;;5.65;4.60;;;21.20;30.10;;;;;;5093284;28;20456;-59
2023/03/19 04:08:39;;;;;;;5.30;4.63;;;21.20;30.10;;;;;;5093289;28;20051;-59
2023/03/19 04:11:07;;;;;;;5.05;4.28;;;21.20;30.10;;;;;;5092846;28;20056;-60
2023/03/19 04:13:35;;;;;;;6.10;4.55;;;21.20;30.10;;;;;;5093148;28;20080;-59
2023/03/19 04:16:04;;;;;;;4.88;4.20;;;21.20;30.10;;;;;;5092989;28;20058;-59
2023/03/19 04:18:31;;;;;;;4.93;4.18;;;21.10;30.00;;;;;;5092995;28;20044;-59
2023/03/19 04:20:59;;;;;;;5.65;4.55;;;21.20;30.10;;;;;;5092734;28;20067;-59
2023/03/19 04:23:26;;;;;;;5.35;4.32;;;21.10;30.10;;;;;;5093073;28;20495;-59
2023/03/19 04:26:01;;;;;;;5.38;3.97;;;21.10;30.10;;;;;;5093041;28;20058;-60
2023/03/19 04:28:30;;;;;;;4.63;4.03;;;21.10;30.10;;;;;;5096193;28;20075;-59
2023/03/19 04:31:02;;;;;;;5.45;4.60;;;21.10;30.10;;;;;;5096640;28;20048;-60
2023/03/19 04:33:29;;;;;;;6.43;4.57;;;21.10;30.10;;;;;;5096708;28;20044;-59
2023/03/19 04:35:57;;;;;;;6.32;4.82;;;21.10;30.10;;;;;;5096809;28;20079;-60
2023/03/19 04:38:28;;;;;;;5.40;4.20;;;21.10;30.10;;;;;;5096686;28;20440;-59
2023/03/19 04:40:55;;;;;;;5.68;4.60;;;21.20;30.10;;;;;;5096593;28;20058;-60
2023/03/19 04:43:23;;;;;;;4.22;3.83;;;21.10;30.10;;;;;;5096230;28;20046;-59
2023/03/19 04:45:51;;;;;;;4.90;3.85;;;21.10;30.10;;;;;;5096319;28;20484;-59
2023/03/19 04:48:18;;;;;;;4.97;4.20;;;21.10;30.10;;;;;;5095964;28;20082;-60
2023/03/19 04:50:46;;;;;;;5.88;4.40;;;21.10;30.10;;;;;;5096549;28;20082;-59
2023/03/19 04:53:13;;;;;;;5.85;4.15;;;21.10;30.10;;;;;;5096395;28;20400;-59
2023/03/19 04:55:40;;;;;;;5.22;4.03;;;21.10;30.10;;;;;;5096027;28;20380;-59
2023/03/19 04:58:08;;;;;;;6.25;4.63;;;21.10;30.10;;;;;;5095943;28;20193;-59
2023/03/19 05:00:35;;;;;;;5.53;4.40;;;21.10;30.10;;;;;;5095981;28;20079;-59
2023/03/19 05:03:02;;;;;;;4.75;3.78;;;21.10;30.10;;;;;;5096147;28;20080;-60
2023/03/19 05:05:30;;;;;;;4.28;3.80;;;21.10;30.10;;;;;;5095982;28;20086;-59
2023/03/19 05:07:57;;;;;;;4.80;4.07;;;21.10;30.20;;;;;;5095776;28;20087;-59
2023/03/19 05:10:24;;;;;;;4.78;3.95;;;21.10;30.10;;;;;;5094610;28;20063;-59
2023/03/19 05:12:51;;;;;;;6.75;3.92;;;21.10;30.10;;;;;;5096054;28;20105;-59
2023/03/19 05:15:18;;;;;;;4.45;3.92;;;21.10;30.10;;;;;;5095789;28;20054;-60
2023/03/19 05:17:45;;;;;;;4.78;3.38;;;21.10;30.10;;;;;;5095579;28;20050;-59
2023/03/19 05:20:13;;;;;;;5.03;4.22;;;21.20;30.20;;;;;;5095903;28;20070;-59
2023/03/19 05:22:40;;;;;;;4.78;3.78;;;21.20;30.20;;;;;;5095812;28;20060;-59
2023/03/19 05:25:08;;;;;;;4.90;3.83;;;21.20;30.10;;;;;;5095606;28;20136;-59
2023/03/19 05:27:35;;;;;;;5.10;4.05;;;21.20;30.10;;;;;;5095796;28;20047;-59
2023/03/19 05:30:04;;;;;;;4.70;3.85;;;21.20;30.10;;;;;;5095738;28;20143;-60
2023/03/19 05:32:32;;;;;;;5.05;3.72;;;21.20;30.10;;;;;;5095597;28;20048;-60
2023/03/19 05:34:59;;;;;;;5.75;4.28;;;21.20;30.10;;;;;;5095307;28;20054;-59
2023/03/19 05:37:26;;;;;;;5.68;4.50;;;21.20;30.00;;;;;;5095489;28;20074;-59
2023/03/19 05:39:53;;;;;;;5.30;4.45;;;21.20;30.00;;;;;;5094642;28;20048;-59
2023/03/19 05:42:20;;;;;;;6.07;4.80;;;21.20;30.00;;;;;;5095115;28;20048;-59
2023/03/19 05:44:47;;;;;;;6.30;4.28;;;21.20;30.00;;;;;;5095407;28;20044;-59
2023/03/19 05:47:15;;;;;;;8.15;5.05;;;21.10;30.00;;;;;;5094950;28;20048;-59
2023/03/19 05:49:42;;;;;;;7.30;4.82;;;21.20;30.00;;;;;;5095411;28;20093;-59
2023/03/19 05:52:10;;;;;;;7.07;5.00;;;21.20;30.00;;;;;;5095218;28;20047;-59
2023/03/19 05:54:37;;;;;;;6.13;4.88;;;21.20;29.90;;;;;;5089571;28;20052;-59
2023/03/19 05:57:04;;;;;;;7.28;4.40;;;21.20;29.90;;;;;;5074946;28;20055;-59
2023/03/19 05:59:31;;;;;;;5.75;4.32;;;21.20;29.80;;;;;;5074471;28;20044;-59
2023/03/19 06:01:58;;;;;;;8.40;4.57;;;21.30;29.80;;;;;;5074453;28;20044;-59
2023/03/19 06:04:26;;;;;;;5.55;4.68;;;21.30;29.80;;;;;;5074992;28;20397;-59
2023/03/19 06:06:53;;;;;;;6.72;4.85;;;21.30;29.70;;;;;;5074446;28;20049;-59
2023/03/19 06:09:20;;;;;;;6.30;5.13;;;21.30;29.70;;;;;;5074730;28;20049;-59
2023/03/19 06:11:47;;;;;;;5.05;4.10;;;21.40;29.60;;;;;;5073820;28;20563;-61
2023/03/19 06:14:15;;;;;;;6.82;4.88;;;21.40;29.60;;;;;;5074345;28;20051;-59
2023/03/19 06:16:42;;;;;;;7.75;5.13;;;21.50;29.60;;;;;;5074611;28;20054;-59
2023/03/19 06:19:09;;;;;;;6.85;4.75;;;21.50;29.50;;;;;;5073944;28;20040;-60
2023/03/19 06:21:36;;;;;;;6.22;5.13;;;21.50;29.40;;;;;;5072972;28;20139;-59
2023/03/19 06:24:03;;;;;;;6.40;5.22;;;21.60;29.40;;;;;;5074423;28;20049;-59
2023/03/19 06:26:30;;;;;;;6.93;5.28;;;21.60;29.40;;;;;;5074304;28;20052;-59
2023/03/19 06:28:57;;;;;;;7.53;5.68;;;21.60;29.30;;;;;;5074378;28;20068;-59
2023/03/19 06:31:24;;;;;;;5.40;4.82;;;21.70;29.30;;;;;;5074307;28;20045;-59
2023/03/19 06:33:52;;;;;;;5.82;4.68;;;21.80;29.30;;;;;;5074189;28;20071;-59
2023/03/19 06:36:20;;;;;;;5.22;4.63;;;21.80;29.20;;;;;;5074126;28;20076;-59
2023/03/19 06:38:47;;;;;;;5.65;4.80;;;21.80;29.20;;;;;;5073891;28;20048;-59
2023/03/19 06:41:15;;;;;;;6.75;5.22;;;21.80;29.10;;;;;;5073563;28;20044;-60
2023/03/19 06:43:42;;;;;;;5.95;5.03;;;21.90;29.10;;;;;;5074166;28;20084;-59
2023/03/19 06:46:09;;;;;;;9.00;5.57;;;21.90;29.00;;;;;;5073831;28;20054;-59
2023/03/19 06:48:38;;;;;;;7.20;5.13;;;22.00;29.00;;;;;;5074009;28;20071;-59
2023/03/19 06:51:05;;;;;;;5.47;4.65;;;22.00;29.00;;;;;;5073916;28;20056;-62
2023/03/19 06:53:33;;;;;;;7.65;5.20;;;22.00;28.90;;;;;;5073709;28;20080;-59
2023/03/19 06:56:00;;;;;;;6.65;4.70;;;22.10;28.90;;;;;;5073922;28;20044;-59
2023/03/19 06:58:27;;;;;;;5.47;4.75;;;22.10;28.90;;;;;;5073614;28;20105;-59
2023/03/19 07:00:55;;;;;;;7.07;5.03;;;22.10;28.90;;;;;;5073444;28;20087;-59
2023/03/19 07:03:24;;;;;;;7.80;5.60;;;22.10;28.90;;;;;;5072580;28;20105;-62
2023/03/19 07:05:51;;;;;;;6.70;4.88;;;22.20;28.80;;;;;;5073809;28;20048;-62
2023/03/19 07:08:19;;;;;;;6.43;5.05;;;22.20;28.80;;;;;;5072426;28;20044;-67
2023/03/19 07:10:46;;;;;;;7.05;4.78;;;22.30;28.80;;;;;;5073381;28;20072;-63
2023/03/19 07:13:13;;;;;;;5.75;5.13;;;22.30;28.80;;;;;;5073683;28;20080;-61
2023/03/19 07:15:41;;;;;;;7.95;5.32;;;22.30;28.70;;;;;;5073312;28;20059;-61
2023/03/19 07:18:08;;;;;;;6.32;5.43;;;22.40;28.70;;;;;;5073319;28;20055;-63
2023/03/19 07:20:35;;;;;;;6.85;5.20;;;22.40;28.70;;;;;;5073549;28;20127;-61
2023/03/19 07:23:02;;;;;;;6.00;4.97;;;22.40;28.70;;;;;;5073053;28;20056;-65
2023/03/19 07:25:30;;;;;;;6.80;5.18;;;22.50;28.70;;;;;;5073610;28;20045;-64
2023/03/19 07:27:57;;;;;;;9.13;4.88;;;22.50;28.60;;;;;;5073116;28;20054;-65
2023/03/19 07:30:24;;;;;;;4.82;4.30;;;22.60;28.60;;;;;;5075017;28;20072;-68
2023/03/19 07:32:51;;;;;;;5.25;4.45;;;22.60;29.00;;;;;;5093579;28;20067;-61
2023/03/19 07:35:18;;;;;;;5.88;4.65;;;22.60;28.50;;;;;;5093325;28;20499;-63
2023/03/19 07:37:45;;;;;;;5.95;4.80;;;22.70;28.50;;;;;;5093195;28;20054;-60
2023/03/19 07:40:13;;;;;;;7.13;5.07;;;22.70;28.50;;;;;;5093237;28;20084;-66
2023/03/19 07:42:40;;;;;;;6.55;5.15;;;22.70;28.40;;;;;;5087939;28;20072;-65
2023/03/19 07:45:10;;;;;;;7.07;5.47;;;22.80;28.40;;;;;;5073321;28;20052;-61
2023/03/19 07:47:38;;;;;;;6.15;4.82;;;22.80;28.30;;;;;;5071696;28;20063;-61
2023/03/19 07:50:06;;;;;;;7.28;5.00;;;22.90;28.30;;;;;;5072956;28;20048;-59
2023/03/19 07:52:33;;;;;;;7.28;5.43;;;22.80;28.30;;;;;;5072818;28;20139;-59
2023/03/19 07:55:01;;;;;;;8.00;5.25;;;22.90;28.30;;;;;;5073023;28;20567;-60
2023/03/19 07:57:28;;;;;;;6.35;5.43;;;22.90;28.30;;;;;;5072752;28;20056;-60
2023/03/19 07:59:55;;;;;;;6.25;5.10;;;23.00;28.30;;;;;;5072830;28;20040;-60
2023/03/19 08:02:22;;;;;;;6.55;4.95;;;23.00;28.20;;;;;;5074791;28;20072;-60
2023/03/19 08:04:50;;;;;;;7.28;4.95;;;23.10;28.20;;;;;;5076819;28;20566;-60
2023/03/19 08:07:17;;;;;;;9.38;5.53;;;23.10;28.10;;;;;;5076674;28;20496;-60
2023/03/19 08:09:44;;;;;;;6.90;4.90;;;23.10;28.10;;;;;;5080761;28;20044;-60
2023/03/19 08:12:12;;;;;;;6.47;5.00;;;23.20;28.10;;;;;;5096954;28;20131;-60
2023/03/19 08:14:39;;;;;;;6.65;5.35;;;23.20;28.00;;;;;;5096855;28;20080;-60
2023/03/19 08:17:07;;;;;;;5.43;4.88;;;23.30;28.10;;;;;;5097115;28;20435;-60
2023/03/19 08:19:34;;;;;;;7.50;5.20;;;23.30;28.00;;;;;;5097232;28;20048;-60
2023/03/19 08:22:01;;;;;;;7.30;5.38;;;23.40;28.00;;;;;;5096536;28;20135;-60
2023/03/19 08:24:28;;;;;;;6.55;4.82;;;23.40;28.00;;;;;;5096692;28;20044;-60
2023/03/19 08:26:55;;;;;;;6.85;5.10;;;23.50;28.00;;;;;;5096899;28;20058;-60
2023/03/19 08:29:25;;;;;;;5.72;4.90;;;23.50;27.90;;;;;;5096609;28;20048;-60
2023/03/19 08:31:56;;;;;;;7.03;5.53;;;23.60;27.90;;;;;;5096591;28;20086;-60
2023/03/19 08:34:23;;;;;;;5.43;4.93;;;23.60;27.90;;;;;;5096845;28;20075;-60
2023/03/19 08:36:51;;;;;;;7.03;5.70;;;23.60;27.80;;;;;;5096333;28;20052;-60
2023/03/19 08:39:18;;;;;;;6.93;4.78;;;23.70;27.80;;;;;;5096706;28;20044;-60
2023/03/19 08:41:45;;;;;;;6.40;5.25;;;23.70;27.80;;;;;;5096262;28;20055;-60
2023/03/19 08:44:12;;;;;;;5.82;5.18;;;23.70;27.90;;;;;;5095881;28;20070;-59
2023/03/19 08:46:41;;;;;;;5.38;4.78;;;23.80;27.90;;;;;;5095095;28;20051;-60
2023/03/19 08:49:08;;;;;;;6.68;5.30;;;23.80;27.90;;;;;;5095509;28;20161;-59
2023/03/19 08:51:35;;;;;;;6.78;5.50;;;23.90;27.90;;;;;;5082070;28;20132;-60
2023/03/19 08:54:02;;;;;;;6.47;5.32;;;23.90;27.90;;;;;;5080338;28;21049;-60
2023/03/19 08:56:30;;;;;;;5.75;5.18;;;24.00;27.90;;;;;;5077642;28;20048;-60
2023/03/19 08:58:57;;;;;;;5.82;4.90;;;24.00;27.90;;;;;;5095883;28;20479;-60
2023/03/19 09:01:24;;;;;;;6.05;4.45;;;24.10;27.90;;;;;;5095809;28;20050;-60
2023/03/19 09:03:51;;;;;;;7.13;5.03;;;24.10;27.80;;;;;;5095650;28;20407;-60
2023/03/19 09:06:19;;;;;;;6.90;5.25;;;24.10;27.80;;;;;;5094694;28;20087;-59
2023/03/19 09:08:46;;;;;;;7.30;5.07;;;24.20;27.80;;;;;;5095970;28;20056;-61
2023/03/19 09:11:15;;;;;;;644.30;123.53;;;24.30;27.80;;;;;;5095485;28;20044;-59
2023/03/19 09:13:43;;;;;;;601.58;114.32;;;24.30;27.90;;;;;;5094589;28;20462;-59
2023/03/19 09:16:10;;;;;;;460.90;83.20;;;24.30;28.10;;;;;;5095659;28;20139;-59
2023/03/19 09:18:38;;;;;;;253.80;45.38;;;24.40;28.00;;;;;;5095830;28;20408;-59
2023/03/19 09:21:05;;;;;;;124.63;27.13;;;24.40;27.90;;;;;;5095431;28;20052;-60
2023/03/19 09:23:32;;;;;;;115.35;23.60;;;24.40;27.60;;;;;;5095556;28;20134;-59
2023/03/19 09:26:00;;;;;;;62.70;14.63;;;24.40;27.50;;;;;;5095809;28;20432;-59
2023/03/19 09:28:27;;;;;;;40.63;10.57;;;24.40;27.50;;;;;;5095392;28;20082;-59
2023/03/19 09:30:54;;;;;;;30.60;9.65;;;24.40;27.50;;;;;;5095508;28;20048;-59
2023/03/19 09:33:22;;;;;;;22.23;7.43;;;24.40;27.50;;;;;;5095255;28;20052;-59
2023/03/19 09:35:54;;;;;;;15.13;6.28;;;24.40;27.50;;;;;;5095676;28;20123;-59
2023/03/19 09:38:21;;;;;;;14.18;5.97;;;24.30;27.50;;;;;;5094901;28;20040;-59
2023/03/19 09:41:06;;;;;;;13.40;6.40;;;24.30;27.50;;;;;;5095439;28;20140;-60
2023/03/19 09:44:04;;;;;;;7.80;4.78;;;24.30;27.60;;;;;;5095238;28;20560;-59
2023/03/19 09:46:51;;;;;;;5.93;4.57;;;24.30;27.60;;;;;;5094605;28;20489;-59
2023/03/19 09:49:31;;;;;;;10.05;5.32;;;24.30;27.60;;;;;;5095198;28;20056;-60
2023/03/19 09:52:19;;;;;;;5.80;4.72;;;24.30;27.60;;;;;;5095344;28;20486;-59
2023/03/19 09:54:51;;;;;;;7.30;5.60;;;24.30;27.60;;;;;;5094984;28;20130;-59
2023/03/19 09:57:18;;;;;;;6.55;4.95;;;24.30;28.00;;;;;;5094796;28;20063;-59
2023/03/19 09:59:47;;;;;;;8.27;5.47;;;24.30;28.00;;;;;;5094758;28;20059;-60
2023/03/19 10:02:39;;;;;;;8.40;5.18;;;24.30;27.60;;;;;;5093421;28;20048;-59
2023/03/19 10:05:34;;;;;;;6.13;5.25;;;24.30;27.50;;;;;;5095091;28;20486;-59
2023/03/19 10:08:23;;;;;;;5.63;4.80;;;24.40;27.40;;;;;;5094722;28;20514;-59
2023/03/19 10:11:15;;;;;;;6.75;4.63;;;24.40;27.40;;;;;;5094664;28;20079;-59
2023/03/19 10:14:12;;;;;;;6.25;5.15;;;24.50;27.40;;;;;;5094495;28;20086;-59
2023/03/19 10:16:45;;;;;;;6.30;4.93;;;24.50;27.40;;;;;;5093370;28;20051;-59
2023/03/19 10:19:19;;;;;;;6.80;4.20;;;24.50;27.30;;;;;;5094712;28;20472;-59
2023/03/19 10:21:58;;;;;;;6.43;5.13;;;24.60;27.30;;;;;;5094797;28;20048;-60
2023/03/19 10:24:35;;;;;;;6.45;4.80;;;24.60;27.70;;;;;;5093868;28;20047;-59
2023/03/19 10:27:13;;;;;;;5.80;4.75;;;24.60;27.20;;;;;;5094379;28;20069;-59
2023/03/19 10:29:41;;;;;;;7.47;5.20;;;24.60;27.20;;;;;;5094638;28;20044;-59
2023/03/19 10:32:20;;;;;;;5.72;4.65;;;24.60;27.20;;;;;;5094183;28;20590;-59
2023/03/19 10:34:49;;;;;;;6.20;4.90;;;24.70;27.20;;;;;;5082237;28;20083;-59
2023/03/19 10:37:20;;;;;;;5.65;4.45;;;24.70;27.10;;;;;;5073939;28;20047;-59
2023/03/19 10:39:50;;;;;;;6.07;4.53;;;24.70;27.10;;;;;;5072870;28;20048;-59
2023/03/19 10:42:56;;;;;;;6.03;4.37;;;24.70;27.10;;;;;;5090322;28;20212;-59
2023/03/19 10:45:34;;;;;;;9.98;4.95;;;24.70;27.10;;;;;;5093887;28;20070;-59
2023/03/19 10:48:05;;;;;;;6.05;4.57;;;24.70;27.10;;;;;;5092749;28;20169;-59
2023/03/19 10:50:51;;;;;;;5.70;4.32;;;24.70;27.10;;;;;;5094002;28;20048;-59
2023/03/19 10:53:38;;;;;;;5.55;4.28;;;24.70;27.10;;;;;;5093815;28;20052;-59
2023/03/19 10:56:16;;;;;;;5.78;5.13;;;24.70;27.10;;;;;;5093887;28;20051;-59
2023/03/19 10:58:58;;;;;;;4.53;4.13;;;24.70;27.10;;;;;;5093756;28;20105;-59
2023/03/19 11:01:30;;;;;;;5.28;4.35;;;24.70;27.10;;;;;;5093659;28;20127;-59
2023/03/19 11:03:59;;;;;;;5.07;4.25;;;24.70;27.10;;;;;;5093881;28;20044;-59
2023/03/19 11:06:37;;;;;;;5.75;4.50;;;24.70;27.10;;;;;;5093686;28;20441;-59
2023/03/19 11:09:22;;;;;;;5.05;4.55;;;24.70;27.00;;;;;;5093485;28;20553;-59
2023/03/19 11:11:52;;;;;;;6.10;4.50;;;24.70;27.00;;;;;;5093896;28;20052;-59
2023/03/19 11:14:23;;;;;;;;;;;24.70;27.10;;;;;;5093889;28;20121;-59
2023/03/19 11:16:56;;;;;;;6.25;4.32;;;24.70;27.00;;;;;;5093577;28;20010;-59
2023/03/19 11:19:27;;;;;;;5.30;4.50;;;24.70;27.00;;;;;;5093432;28;20446;-59
2023/03/19 11:22:14;;;;;;;5.50;3.88;;;24.70;27.00;;;;;;5093619;28;20131;-59
2023/03/19 11:24:49;;;;;;;5.55;4.45;;;24.70;26.90;;;;;;5093450;28;20059;-59
2023/03/19 11:27:16;;;;;;;5.53;3.65;;;24.70;27.00;;;;;;5093426;28;20052;-59
2023/03/19 11:29:44;;;;;;;5.20;3.92;;;24.80;27.00;;;;;;5093145;28;20559;-59
2023/03/19 11:32:51;;;;;;;5.35;4.65;;;24.80;27.00;;;;;;5093369;28;20048;-59
2023/03/19 11:35:28;;;;;;;5.95;4.25;;;24.80;27.00;;;;;;5092569;28;20051;-59
2023/03/19 11:37:58;;;;;;;5.28;4.00;;;24.80;27.00;;;;;;5092398;28;20048;-59
2023/03/19 11:40:52;;;;;;;5.07;3.90;;;24.80;27.00;;;;;;5093296;28;20048;-59
2023/03/19 11:43:47;;;;;;;5.38;4.00;;;24.90;27.00;;;;;;5092260;28;20085;-59
2023/03/19 11:46:46;;;;;;;4.55;4.00;;;24.90;26.90;;;;;;5091791;28;20048;-60
2023/03/19 11:49:53;;;;;;;5.35;4.30;;;24.90;26.90;;;;;;5089765;28;20044;-59
2023/03/19 11:52:53;;;;;;;5.18;3.83;;;24.90;26.90;;;;;;5060698;28;20059;-59
2023/03/19 11:55:47;;;;;;;4.65;4.03;;;25.00;26.80;;;;;;5092507;28;20041;-59
2023/03/19 11:58:47;;;;;;;5.95;3.90;;;25.00;26.80;;;;;;5091949;28;20559;-59
2023/03/19 12:01:54;;;;;;;4.55;3.70;;;25.00;26.80;;;;;;5093017;28;20048;-59
2023/03/19 12:05:01;;;;;;;6.05;3.90;;;25.00;26.80;;;;;;5092949;28;20048;-59
2023/03/19 12:07:45;;;;;;;5.47;3.92;;;25.00;26.80;;;;;;5092486;28;20075;-59
2023/03/19 12:10:39;;;;;;;4.40;4.00;;;25.00;26.80;;;;;;5092898;28;20131;-59
2023/03/19 12:13:31;;;;;;;4.43;3.75;;;25.00;26.80;;;;;;5091978;28;20050;-62
2023/03/19 12:16:28;;;;;;;3.70;3.25;;;25.00;26.80;;;;;;5092919;28;20093;-59
2023/03/19 12:19:27;;;;;;;4.43;3.55;;;24.90;26.90;;;;;;5092870;28;20045;-59
2023/03/19 12:22:21;;;;;;;3.40;3.10;;;24.90;26.80;;;;;;5092797;28;20489;-59
2023/03/19 12:25:20;;;;;;;5.25;4.07;;;24.90;26.90;;;;;;5091797;28;20547;-59
2023/03/19 12:28:23;;;;;;;4.18;3.70;;;24.90;26.90;;;;;;5092294;28;20044;-59
2023/03/19 12:31:17;;;;;;;4.35;3.65;;;24.90;26.90;;;;;;5092832;28;20140;-59
2023/03/19 12:34:08;;;;;;;4.72;3.47;;;24.90;26.90;;;;;;5093031;28;20048;-59
2023/03/19 12:36:44;;;;;;;3.53;3.22;;;24.90;26.80;;;;;;5092744;28;20060;-59
2023/03/19 12:39:18;;;;;;;5.57;3.85;;;24.90;26.80;;;;;;5091786;28;20044;-60
2023/03/19 12:41:47;;;;;;;3.95;3.55;;;24.90;26.80;;;;;;5092716;28;20083;-59
2023/03/19 12:44:33;;;;;;;4.80;3.92;;;25.00;26.80;;;;;;5092665;28;20044;-59
2023/03/19 12:47:14;;;;;;;4.05;3.63;;;25.00;26.80;;;;;;5082030;28;20074;-59
2023/03/19 12:49:53;;;;;;;3.88;3.40;;;25.00;26.80;;;;;;5074195;28;20048;-59
2023/03/19 12:52:39;;;;;;;4.20;3.70;;;25.00;26.80;;;;;;5076033;28;20053;-59
2023/03/19 12:55:18;;;;;;;3.42;3.13;;;25.00;26.80;;;;;;5076296;28;20123;-59
2023/03/19 12:58:11;;;;;;;3.95;3.20;;;25.00;26.70;;;;;;5075680;28;20052;-59
2023/03/19 13:01:02;;;;;;;3.40;3.10;;;25.00;26.70;;;;;;5075848;28;20048;-59
2023/03/19 13:04:09;;;;;;;3.75;3.28;;;25.00;26.80;;;;;;5074995;28;20044;-59
2023/03/19 13:06:50;;;;;;;3.92;3.22;;;25.00;26.70;;;;;;5076103;28;20083;-59
2023/03/19 13:09:32;;;;;;;3.95;3.33;;;25.00;26.80;;;;;;5076006;28;20051;-59